createdAt,value
2019-05-10T00:01:28.447Z,77.88
2019-05-10T00:03:54.590Z,77.76
2019-05-10T00:06:20.793Z,77.80
2019-05-10T00:08:47.113Z,77.96
2019-05-10T00:11:04.609Z,78.05
2019-05-10T00:13:16.274Z,78.20
2019-05-10T00:15:26.302Z,78.24
2019-05-10T00:17:36.333Z,78.29
2019-05-10T00:19:44.729Z,78.24
2019-05-10T00:21:52.924Z,78.22
2019-05-10T00:24:00.919Z,78.25
2019-05-10T00:26:09.373Z,78.25
2019-05-10T00:28:17.728Z,78.29
2019-05-10T00:30:25.811Z,78.37
2019-05-10T00:32:34.265Z,78.42
2019-05-10T00:34:42.223Z,78.51
2019-05-10T00:36:50.317Z,78.47
2019-05-10T00:38:58.514Z,78.40
2019-05-10T00:41:06.880Z,78.35
2019-05-10T00:43:15.166Z,78.30
2019-05-10T00:45:23.355Z,78.30
2019-05-10T00:47:31.543Z,78.17
2019-05-10T00:49:39.594Z,78.16
2019-05-10T00:51:48.001Z,78.18
2019-05-10T00:53:56.522Z,78.18
2019-05-10T00:56:04.957Z,78.10
2019-05-10T00:58:13.361Z,78.04
2019-05-10T01:00:21.813Z,78.03
2019-05-10T01:02:30.219Z,78.04
2019-05-10T01:04:38.425Z,78.13
2019-05-10T01:06:46.493Z,78.17
2019-05-10T01:08:54.571Z,78.25
2019-05-10T01:11:02.989Z,78.32
2019-05-10T01:13:11.443Z,78.37
2019-05-10T01:15:19.716Z,78.45
2019-05-10T01:17:28.037Z,78.51
2019-05-10T01:19:36.225Z,78.52
2019-05-10T01:21:44.312Z,78.50
2019-05-10T01:23:52.427Z,78.48
2019-05-10T01:26:00.614Z,78.43
2019-05-10T01:28:08.806Z,78.40
2019-05-10T01:30:17.572Z,78.42
2019-05-10T01:32:25.503Z,78.43
2019-05-10T01:34:33.693Z,78.43
2019-05-10T01:36:41.806Z,78.39
2019-05-10T01:38:49.989Z,78.36
2019-05-10T01:40:57.947Z,78.39
2019-05-10T01:43:06.403Z,78.49
2019-05-10T01:45:15.394Z,78.57
2019-05-10T01:47:23.755Z,78.58
2019-05-10T01:49:31.985Z,78.57
2019-05-10T01:51:40.366Z,78.58
2019-05-10T01:53:50.294Z,78.52
2019-05-10T01:55:58.423Z,78.45
2019-05-10T01:58:06.707Z,78.38
2019-05-10T02:00:15.950Z,78.37
2019-05-10T02:02:24.169Z,78.39
2019-05-10T02:04:32.307Z,78.39
2019-05-10T02:06:40.691Z,78.45
2019-05-10T02:08:48.593Z,78.48
2019-05-10T02:10:56.876Z,78.53
2019-05-10T02:13:05.505Z,78.60
2019-05-10T02:15:14.334Z,78.55
2019-05-10T02:17:22.221Z,78.57
2019-05-10T02:19:30.670Z,78.55
2019-05-10T02:21:38.971Z,78.54
2019-05-10T02:23:47.051Z,78.53
2019-05-10T02:26:08.318Z,78.43
2019-05-10T02:28:05.587Z,78.37
2019-05-10T02:30:14.990Z,78.36
2019-05-10T02:32:23.171Z,78.45
2019-05-10T02:34:31.613Z,78.57
2019-05-10T02:36:40.491Z,78.66
2019-05-10T02:38:48.393Z,78.75
2019-05-10T02:40:56.971Z,78.78
2019-05-10T02:43:05.352Z,78.81
2019-05-10T02:45:14.073Z,78.88
2019-05-10T02:47:22.486Z,78.92
2019-05-10T02:49:30.963Z,78.95
2019-05-10T02:51:39.313Z,79.00
2019-05-10T02:53:47.822Z,79.07
2019-05-10T02:55:57.358Z,79.16
2019-05-10T02:58:05.781Z,79.19
2019-05-10T03:00:16.205Z,79.16
2019-05-10T03:02:25.524Z,79.12
2019-05-10T03:04:36.963Z,79.05
2019-05-10T03:06:46.745Z,78.95
2019-05-10T03:08:55.669Z,78.89
2019-05-10T03:11:04.071Z,78.87
2019-05-10T03:13:16.053Z,78.86
2019-05-10T03:15:25.037Z,79.09
2019-05-10T03:17:33.395Z,79.02
2019-05-10T03:19:43.338Z,79.01
2019-05-10T03:21:59.202Z,78.93
2019-05-10T03:24:07.571Z,78.85
2019-05-10T03:26:16.070Z,78.89
2019-05-10T03:28:24.529Z,78.74
2019-05-10T03:30:32.946Z,78.46
2019-05-10T03:32:41.178Z,78.52
2019-05-10T03:34:49.147Z,78.55
2019-05-10T03:36:57.949Z,78.57
2019-05-10T03:39:07.501Z,78.61
2019-05-10T03:41:15.817Z,78.70
2019-05-10T03:43:24.391Z,78.75
2019-05-10T03:45:32.786Z,78.86
2019-05-10T03:47:41.077Z,78.99
2019-05-10T03:49:49.501Z,79.10
2019-05-10T03:51:57.804Z,79.26
2019-05-10T03:54:06.355Z,79.42
2019-05-10T03:56:14.634Z,79.54
2019-05-10T03:58:22.924Z,79.64
2019-05-10T04:00:32.205Z,79.67
2019-05-10T04:02:40.596Z,79.72
2019-05-10T04:04:48.577Z,79.75
2019-05-10T04:06:56.772Z,79.84
2019-05-10T04:09:07.185Z,79.89
2019-05-10T04:11:15.345Z,80.02
2019-05-10T04:13:23.340Z,80.10
2019-05-10T04:15:31.730Z,80.19
2019-05-10T04:17:40.058Z,80.24
2019-05-10T04:19:49.344Z,80.34
2019-05-10T04:21:57.640Z,80.50
2019-05-10T04:24:05.721Z,80.53
2019-05-10T04:26:13.708Z,80.53
2019-05-10T04:28:21.886Z,80.48
2019-05-10T04:30:31.762Z,80.51
2019-05-10T04:32:40.515Z,80.51
2019-05-10T04:34:48.697Z,80.48
2019-05-10T04:36:57.105Z,80.44
2019-05-10T04:39:07.493Z,80.43
2019-05-10T04:41:15.847Z,80.46
2019-05-10T04:43:24.144Z,80.47
2019-05-10T04:45:32.664Z,80.45
2019-05-10T04:47:41.043Z,80.43
2019-05-10T04:49:49.268Z,80.42
2019-05-10T04:51:57.542Z,80.37
2019-05-10T04:54:06.104Z,80.36
2019-05-10T04:56:14.515Z,80.30
2019-05-10T04:58:22.503Z,80.19
2019-05-10T05:00:30.855Z,79.94
2019-05-10T05:02:39.169Z,79.87
2019-05-10T05:04:47.256Z,79.93
2019-05-10T05:06:56.127Z,79.89
2019-05-10T05:09:06.840Z,79.89
2019-05-10T05:11:15.132Z,79.92
2019-05-10T05:13:23.316Z,79.90
2019-05-10T05:15:31.624Z,79.89
2019-05-10T05:17:40.470Z,79.83
2019-05-10T05:19:48.869Z,79.95
2019-05-10T05:21:57.268Z,80.60
2019-05-10T05:24:05.654Z,80.31
2019-05-10T05:26:13.910Z,80.15
2019-05-10T05:28:23.265Z,80.02
2019-05-10T05:30:32.296Z,80.03
2019-05-10T05:32:44.454Z,80.07
2019-05-10T05:34:50.274Z,79.96
2019-05-10T05:36:58.467Z,79.70
2019-05-10T05:39:08.724Z,80.00
2019-05-10T05:41:17.026Z,79.45
2019-05-10T05:43:25.310Z,79.99
2019-05-10T05:45:35.323Z,79.78
2019-05-10T05:47:44.802Z,79.58
2019-05-10T05:49:53.350Z,79.33
2019-05-10T05:52:01.494Z,79.84
2019-05-10T05:54:15.053Z,79.49
2019-05-10T05:56:19.965Z,79.17
2019-05-10T05:58:29.324Z,79.12
2019-05-10T06:00:44.810Z,79.38
2019-05-10T06:02:47.730Z,79.48
2019-05-10T06:04:56.017Z,79.26
2019-05-10T06:07:04.137Z,78.98
2019-05-10T06:09:12.531Z,78.83
2019-05-10T06:11:20.816Z,78.59
2019-05-10T06:13:30.699Z,78.32
2019-05-10T06:15:39.496Z,78.23
2019-05-10T06:17:56.104Z,78.05
2019-05-10T06:20:00.876Z,77.94
2019-05-10T06:22:07.896Z,77.79
2019-05-10T06:24:16.050Z,77.77
2019-05-10T06:26:28.618Z,78.31
2019-05-10T06:28:57.333Z,78.04
2019-05-10T06:30:45.589Z,77.78
2019-05-10T06:33:00.965Z,78.02
2019-05-10T06:35:08.045Z,78.19
2019-05-10T06:37:16.131Z,78.34
2019-05-10T06:39:24.581Z,78.09
2019-05-10T06:41:32.804Z,78.06
2019-05-10T06:43:45.822Z,77.98
2019-05-10T06:45:52.581Z,77.81
2019-05-10T06:48:01.158Z,77.66
2019-05-10T06:50:10.372Z,77.33
2019-05-10T06:52:21.902Z,77.24
2019-05-10T06:54:28.566Z,76.64
2019-05-10T06:56:37.057Z,76.83
2019-05-10T06:58:45.247Z,76.73
2019-05-10T07:00:53.411Z,76.55
2019-05-10T07:03:01.702Z,76.17
2019-05-10T07:05:10.859Z,76.46
2019-05-10T07:07:33.189Z,75.97
2019-05-10T07:09:59.333Z,76.17
2019-05-10T07:11:40.630Z,76.50
2019-05-10T07:13:52.865Z,76.41
2019-05-10T07:15:58.783Z,76.19
2019-05-10T07:18:07.704Z,76.19
2019-05-10T07:20:16.293Z,76.17
2019-05-10T07:22:26.994Z,76.12
2019-05-10T07:24:34.489Z,75.76
2019-05-10T07:26:42.481Z,75.54
2019-05-10T07:28:51.783Z,75.32
2019-05-10T07:31:00.921Z,75.05
2019-05-10T07:33:10.205Z,75.09
2019-05-10T07:35:19.206Z,74.69
2019-05-10T07:37:27.687Z,74.89
2019-05-10T07:39:35.980Z,74.80
2019-05-10T07:41:44.497Z,74.92
2019-05-10T07:43:52.979Z,75.58
2019-05-10T07:46:06.559Z,75.51
2019-05-10T07:48:11.071Z,75.46
2019-05-10T07:50:20.160Z,74.85
2019-05-10T07:52:29.534Z,74.31
2019-05-10T07:54:45.187Z,73.12
2019-05-10T07:56:47.931Z,72.58
2019-05-10T07:58:56.415Z,72.42
2019-05-10T08:01:04.417Z,72.40
2019-05-10T08:03:16.804Z,73.46
2019-05-10T08:05:22.723Z,73.01
2019-05-10T08:07:31.021Z,72.18
2019-05-10T08:09:44.835Z,72.85
2019-05-10T08:11:54.131Z,73.01
2019-05-10T08:14:06.329Z,72.38
2019-05-10T08:16:11.780Z,70.26
2019-05-10T08:18:23.482Z,70.95
2019-05-10T08:20:45.792Z,70.49
2019-05-10T08:22:45.930Z,71.52
2019-05-10T08:24:55.891Z,70.13
2019-05-10T08:27:08.064Z,70.49
2019-05-10T08:29:15.157Z,70.29
2019-05-10T08:31:23.002Z,72.15
2019-05-10T08:33:32.813Z,69.62
2019-05-10T08:35:45.940Z,67.26
2019-05-10T08:37:53.006Z,66.26
2019-05-10T08:40:03.130Z,64.47
2019-05-10T08:42:32.120Z,64.81
2019-05-10T08:44:23.968Z,66.06
2019-05-10T08:46:40.597Z,64.84
2019-05-10T08:48:46.139Z,67.80
2019-05-10T08:50:57.054Z,69.75
2019-05-10T08:53:10.552Z,66.92
2019-05-10T08:55:12.638Z,65.39
2019-05-10T08:57:22.276Z,64.10
2019-05-10T08:59:30.983Z,64.51
2019-05-10T09:01:46.487Z,66.05
2019-05-10T09:03:55.098Z,67.17
2019-05-10T09:06:03.534Z,66.41
2019-05-10T09:08:13.547Z,65.18
2019-05-10T09:10:19.456Z,65.52
2019-05-10T09:12:29.545Z,65.20
2019-05-10T09:14:37.898Z,66.10
2019-05-10T09:16:56.307Z,64.56
2019-05-10T09:18:56.286Z,65.00
2019-05-10T09:21:08.873Z,67.96
2019-05-10T09:23:19.904Z,66.07
2019-05-10T09:25:28.786Z,63.58
2019-05-10T09:27:34.635Z,63.00
2019-05-10T09:29:43.170Z,62.52
2019-05-10T09:31:53.466Z,61.67
2019-05-10T09:34:02.422Z,60.83
2019-05-10T09:36:12.427Z,61.38
2019-05-10T09:38:22.156Z,61.21
2019-05-10T09:40:32.689Z,64.58
2019-05-10T09:42:43.517Z,63.86
2019-05-10T09:44:52.704Z,62.85
2019-05-10T09:47:01.938Z,61.11
2019-05-10T09:49:15.728Z,58.72
2019-05-10T09:51:27.947Z,57.60
2019-05-10T09:53:30.992Z,59.04
2019-05-10T09:55:39.287Z,58.17
2019-05-10T09:57:48.089Z,57.57
2019-05-10T09:59:57.262Z,57.34
2019-05-10T10:02:14.628Z,58.14
2019-05-10T10:04:17.826Z,61.83
2019-05-10T10:06:29.559Z,60.14
2019-05-10T10:08:38.424Z,59.32
2019-05-10T10:10:47.757Z,56.83
2019-05-10T10:12:58.370Z,58.50
2019-05-10T10:15:09.564Z,58.71
2019-05-10T10:17:20.420Z,57.62
2019-05-10T10:19:27.779Z,58.57
2019-05-10T10:21:38.933Z,59.91
2019-05-10T10:23:46.531Z,59.26
2019-05-10T10:25:54.449Z,56.51
2019-05-10T10:28:02.344Z,57.73
2019-05-10T10:30:17.613Z,59.80
2019-05-10T10:32:24.668Z,58.99
2019-05-10T10:34:32.505Z,57.60
2019-05-10T10:36:43.952Z,59.21
2019-05-10T10:38:49.949Z,55.64
2019-05-10T10:40:58.028Z,59.30
2019-05-10T10:43:07.440Z,57.52
2019-05-10T10:45:17.361Z,57.34
2019-05-10T10:47:28.301Z,58.64
2019-05-10T10:49:37.829Z,56.65
2019-05-10T10:51:47.245Z,56.10
2019-05-10T10:53:58.042Z,57.02
2019-05-10T10:56:07.475Z,55.23
2019-05-10T10:58:14.995Z,56.61
2019-05-10T11:00:33.537Z,54.25
2019-05-10T11:02:41.945Z,54.14
2019-05-10T11:04:51.053Z,53.36
2019-05-10T11:07:09.853Z,53.99
2019-05-10T11:09:09.694Z,52.69
2019-05-10T11:11:17.517Z,53.80
2019-05-10T11:13:41.598Z,52.35
2019-05-10T11:15:36.474Z,52.51
2019-05-10T11:17:44.842Z,52.67
2019-05-10T11:19:52.735Z,53.34
2019-05-10T11:22:04.363Z,51.70
2019-05-10T11:24:18.557Z,52.15
2019-05-10T11:26:21.741Z,52.84
2019-05-10T11:28:38.479Z,52.31
2019-05-10T11:30:39.309Z,49.60
2019-05-10T11:32:47.368Z,49.57
2019-05-10T11:34:55.301Z,51.87
2019-05-10T11:37:03.349Z,49.15
2019-05-10T11:39:25.688Z,52.82
2019-05-10T11:41:24.318Z,48.28
2019-05-10T11:43:31.355Z,49.52
2019-05-10T11:45:41.995Z,49.20
2019-05-10T11:47:54.306Z,51.63
2019-05-10T11:49:58.757Z,47.79
2019-05-10T11:52:10.783Z,49.08
2019-05-10T11:54:17.964Z,48.99
2019-05-10T11:56:27.703Z,46.83
2019-05-10T12:00:45.151Z,44.26
2019-05-10T12:03:07.694Z,46.37
2019-05-10T12:05:16.638Z,47.08
2019-05-10T12:07:14.726Z,45.06
2019-05-10T12:09:24.518Z,46.94
2019-05-10T12:11:34.120Z,46.72
2019-05-10T12:13:42.200Z,44.98
2019-05-10T12:15:51.979Z,44.75
2019-05-10T12:18:04.551Z,43.93
2019-05-10T12:20:12.570Z,45.53
2019-05-10T12:22:21.734Z,43.25
2019-05-10T12:24:46.275Z,43.84
2019-05-10T12:26:00.229Z,45.92
2019-05-10T12:28:51.155Z,44.68
2019-05-10T12:31:01.397Z,43.85
2019-05-10T12:33:23.634Z,45.54
2019-05-10T12:35:21.328Z,45.57
2019-05-10T12:37:30.801Z,42.69
2019-05-10T12:39:38.868Z,42.82
2019-05-10T12:41:49.730Z,42.38
2019-05-10T12:44:03.312Z,45.68
2019-05-10T12:46:06.788Z,43.23
2019-05-10T12:48:14.809Z,41.87
2019-05-10T12:50:23.350Z,45.63
2019-05-10T12:52:32.165Z,43.95
2019-05-10T12:54:41.448Z,44.40
2019-05-10T12:56:49.880Z,43.23
2019-05-10T12:58:59.631Z,42.47
2019-05-10T13:01:08.506Z,43.48
2019-05-10T13:03:19.235Z,45.57
2019-05-10T13:05:32.222Z,45.06
2019-05-10T13:07:37.555Z,45.47
2019-05-10T13:09:49.612Z,42.45
2019-05-10T13:12:02.658Z,42.45
2019-05-10T13:14:07.732Z,39.32
2019-05-10T13:16:16.697Z,35.94
2019-05-10T13:18:49.045Z,38.80
2019-05-10T13:20:36.723Z,40.64
2019-05-10T13:22:44.636Z,38.36
2019-05-10T13:24:52.602Z,40.16
2019-05-10T13:27:03.523Z,39.98
2019-05-10T13:29:13.554Z,40.38
2019-05-10T13:31:21.928Z,40.35
2019-05-10T13:33:40.725Z,39.16
2019-05-10T13:35:40.441Z,39.83
2019-05-10T13:37:48.958Z,40.65
2019-05-10T13:39:58.136Z,40.49
2019-05-10T13:42:09.688Z,43.86
2019-05-10T13:44:18.172Z,40.42
2019-05-10T13:46:26.276Z,40.11
2019-05-10T13:48:34.501Z,38.77
2019-05-10T13:50:42.684Z,38.05
2019-05-10T13:52:52.621Z,37.83
2019-05-10T13:55:01.042Z,38.15
2019-05-10T13:57:09.748Z,37.66
2019-05-10T13:59:18.202Z,38.75
2019-05-10T14:01:27.297Z,38.17
2019-05-10T14:03:43.749Z,38.46
2019-05-10T14:05:45.876Z,38.13
2019-05-10T14:07:54.297Z,38.06
2019-05-10T14:10:02.682Z,39.35
2019-05-10T14:12:16.306Z,39.36
2019-05-10T14:14:26.457Z,38.39
2019-05-10T14:16:32.977Z,37.62
2019-05-10T14:18:41.167Z,40.82
2019-05-10T14:20:49.436Z,37.52
2019-05-10T14:22:58.912Z,40.25
2019-05-10T14:25:08.590Z,35.80
2019-05-10T14:27:17.043Z,34.75
2019-05-10T14:29:33.338Z,38.67
2019-05-10T14:31:35.441Z,36.85
2019-05-10T14:33:49.540Z,37.94
2019-05-10T14:35:55.145Z,37.30
2019-05-10T14:38:08.278Z,37.67
2019-05-10T14:40:17.070Z,38.32
2019-05-10T14:42:30.419Z,38.86
2019-05-10T14:44:33.313Z,38.53
2019-05-10T14:46:41.695Z,38.35
2019-05-10T14:48:50.670Z,37.11
2019-05-10T14:51:02.898Z,38.52
2019-05-10T14:53:08.998Z,39.88
2019-05-10T14:55:17.508Z,40.41
2019-05-10T14:57:25.519Z,40.22
2019-05-10T14:59:33.835Z,40.53
2019-05-10T15:01:44.726Z,40.88
2019-05-10T15:03:52.311Z,41.67
2019-05-10T15:06:01.616Z,41.00
2019-05-10T15:08:10.147Z,42.18
2019-05-10T15:10:18.475Z,41.75
2019-05-10T15:12:26.777Z,40.88
2019-05-10T15:14:35.254Z,40.73
2019-05-10T15:16:43.690Z,39.23
2019-05-10T15:18:51.859Z,39.62
2019-05-10T15:21:01.109Z,39.50
2019-05-10T15:23:09.550Z,38.52
2019-05-10T15:25:17.880Z,38.63
2019-05-10T15:27:26.310Z,39.16
2019-05-10T15:29:34.758Z,39.45
2019-05-10T15:31:42.702Z,40.58
2019-05-10T15:33:51.160Z,39.59
2019-05-10T15:35:59.680Z,39.84
2019-05-10T15:38:08.073Z,38.85
2019-05-10T15:40:16.672Z,38.93
2019-05-10T15:42:30.493Z,38.77
2019-05-10T15:44:35.947Z,40.80
2019-05-10T15:46:44.283Z,44.26
2019-05-10T15:48:52.410Z,45.63
2019-05-10T15:51:00.486Z,45.25
2019-05-10T15:53:08.657Z,46.16
2019-05-10T15:55:25.848Z,47.01
2019-05-10T15:57:26.998Z,49.04
2019-05-10T15:59:35.371Z,50.01
2019-05-10T16:01:45.606Z,50.99
2019-05-10T16:03:53.577Z,50.63
2019-05-10T16:06:01.671Z,50.45
2019-05-10T16:08:13.386Z,51.62
2019-05-10T16:10:20.227Z,52.36
2019-05-10T16:12:28.223Z,53.62
2019-05-10T16:14:39.130Z,53.99
2019-05-10T16:16:46.666Z,52.98
2019-05-10T16:18:54.945Z,52.12
2019-05-10T16:21:03.025Z,52.59
2019-05-10T16:23:11.337Z,53.62
2019-05-10T16:25:19.772Z,52.73
2019-05-10T16:27:28.009Z,52.79
2019-05-10T16:29:39.738Z,53.04
2019-05-10T16:31:45.951Z,53.30
2019-05-10T16:33:55.726Z,53.23
2019-05-10T16:36:03.900Z,53.43
2019-05-10T16:38:11.987Z,54.41
2019-05-10T16:40:20.444Z,54.14
2019-05-10T16:42:34.401Z,54.30
2019-05-10T16:44:38.177Z,54.17
2019-05-10T16:46:46.583Z,54.16
2019-05-10T16:48:54.968Z,52.88
2019-05-10T16:51:03.769Z,54.18
2019-05-10T16:53:14.331Z,53.36
2019-05-10T16:55:22.318Z,52.63
2019-05-10T16:57:32.122Z,52.92
2019-05-10T16:59:40.821Z,52.70
2019-05-10T17:01:49.005Z,53.92
2019-05-10T17:04:00.588Z,53.42
2019-05-10T17:06:07.337Z,54.54
2019-05-10T17:08:15.620Z,54.73
2019-05-10T17:10:26.961Z,54.62
2019-05-10T17:12:33.727Z,55.41
2019-05-10T17:14:41.714Z,54.92
2019-05-10T17:16:58.303Z,55.35
2019-05-10T17:18:59.778Z,55.81
2019-05-10T17:21:07.728Z,55.58
2019-05-10T17:23:15.710Z,55.85
2019-05-10T17:25:23.631Z,55.68
2019-05-10T17:27:31.518Z,56.39
2019-05-10T17:29:44.481Z,56.30
2019-05-10T17:31:50.904Z,56.69
2019-05-10T17:33:59.167Z,56.82
2019-05-10T17:36:08.723Z,57.28
2019-05-10T17:38:16.844Z,57.18
2019-05-10T17:40:25.018Z,57.15
2019-05-10T17:42:35.554Z,57.24
2019-05-10T17:44:44.291Z,57.21
2019-05-10T17:46:55.310Z,57.92
2019-05-10T17:49:01.978Z,58.53
2019-05-10T17:51:10.064Z,58.62
2019-05-10T17:53:18.045Z,58.69
2019-05-10T17:55:25.942Z,59.29
2019-05-10T17:57:33.854Z,59.51
2019-05-10T17:59:46.809Z,59.62
2019-05-10T18:01:52.065Z,59.42
2019-05-10T18:03:59.973Z,59.24
2019-05-10T18:06:21.969Z,59.33
2019-05-10T18:08:17.575Z,59.12
2019-05-10T18:10:25.648Z,59.42
2019-05-10T18:12:33.949Z,59.44
2019-05-10T18:14:42.832Z,59.64
2019-05-10T18:16:50.941Z,59.82
2019-05-10T18:18:59.234Z,59.96
2019-05-10T18:21:08.120Z,59.97
2019-05-10T18:23:21.084Z,59.98
2019-05-10T18:25:26.012Z,60.58
2019-05-10T18:27:33.889Z,60.48
2019-05-10T18:29:41.992Z,60.25
2019-05-10T18:31:55.850Z,60.58
2019-05-10T18:33:59.581Z,61.80
2019-05-10T18:36:10.821Z,62.49
2019-05-10T18:38:17.483Z,61.95
2019-05-10T18:40:31.805Z,61.25
2019-05-10T18:42:35.152Z,61.26
2019-05-10T18:44:45.721Z,61.04
2019-05-10T18:46:53.023Z,60.88
2019-05-10T18:49:00.984Z,60.83
2019-05-10T18:51:09.577Z,60.77
2019-05-10T18:53:17.679Z,61.00
2019-05-10T18:55:26.303Z,61.11
2019-05-10T18:57:34.412Z,61.16
2019-05-10T18:59:47.105Z,61.22
2019-05-10T19:01:56.248Z,61.07
2019-05-10T19:04:07.414Z,61.24
2019-05-10T19:06:15.321Z,61.64
2019-05-10T19:08:24.103Z,61.64
2019-05-10T19:10:32.393Z,61.93
2019-05-10T19:12:40.886Z,62.36
2019-05-10T19:14:49.657Z,62.59
2019-05-10T19:16:57.580Z,63.17
2019-05-10T19:19:05.661Z,63.62
2019-05-10T19:21:14.215Z,63.88
2019-05-10T19:23:22.542Z,64.75
2019-05-10T19:25:30.924Z,65.26
2019-05-10T19:27:44.742Z,65.29
2019-05-10T19:29:48.945Z,66.05
2019-05-10T19:31:57.062Z,66.61
2019-05-10T19:34:09.016Z,66.61
2019-05-10T19:36:15.005Z,67.03
2019-05-10T19:38:22.904Z,66.71
2019-05-10T19:40:31.689Z,66.56
2019-05-10T19:42:43.117Z,66.47
2019-05-10T19:44:49.135Z,66.18
2019-05-10T19:46:57.204Z,67.48
2019-05-10T19:49:07.544Z,67.04
2019-05-10T19:51:16.119Z,67.73
2019-05-10T19:53:25.029Z,67.51
2019-05-10T19:55:32.990Z,67.66
2019-05-10T19:57:41.338Z,67.72
2019-05-10T20:02:10.562Z,66.98
2019-05-10T20:04:18.608Z,66.73
2019-05-10T20:06:26.592Z,66.47
2019-05-10T20:08:34.655Z,66.40
2019-05-10T20:10:42.859Z,66.34
2019-05-10T20:12:50.749Z,66.38
2019-05-10T20:14:58.841Z,66.30
2019-05-10T20:17:06.730Z,66.60
2019-05-10T20:19:14.638Z,66.88
2019-05-10T20:21:22.551Z,66.71
2019-05-10T20:23:31.092Z,66.68
2019-05-10T20:25:39.418Z,66.85
2019-05-10T20:27:47.461Z,66.91
2019-05-10T20:29:55.350Z,67.15
2019-05-10T20:32:03.251Z,67.36
2019-05-10T20:34:11.763Z,67.76
2019-05-10T20:36:19.787Z,68.21
2019-05-10T20:38:27.587Z,68.69
2019-05-10T20:40:37.235Z,68.97
2019-05-10T20:42:45.350Z,69.40
2019-05-10T20:45:06.895Z,69.50
2019-05-10T20:47:02.868Z,69.76
2019-05-10T20:49:10.912Z,70.06
2019-05-10T20:51:19.074Z,69.96
2019-05-10T20:53:27.212Z,69.99
2019-05-10T20:55:35.376Z,70.25
2019-05-10T20:57:43.360Z,69.84
2019-05-10T20:59:51.346Z,69.92
2019-05-10T21:01:59.233Z,70.07
2019-05-10T21:04:07.679Z,69.94
2019-05-10T21:06:15.803Z,69.88
2019-05-10T21:08:23.695Z,70.25
2019-05-10T21:10:31.591Z,70.71
2019-05-10T21:12:39.518Z,70.98
2019-05-10T21:14:47.420Z,71.08
2019-05-10T21:16:55.378Z,71.17
2019-05-10T21:19:03.403Z,71.41
2019-05-10T21:21:11.427Z,71.48
2019-05-10T21:23:20.911Z,71.55
2019-05-10T21:25:29.029Z,72.17
2019-05-10T21:27:37.367Z,71.77
2019-05-10T21:29:45.264Z,71.50
2019-05-10T21:31:53.297Z,70.76
2019-05-10T21:34:09.822Z,70.51
2019-05-10T21:36:10.974Z,70.18
2019-05-10T21:38:31.888Z,70.01
2019-05-10T21:40:28.438Z,70.15
2019-05-10T21:42:36.334Z,70.35
2019-05-10T21:44:44.253Z,70.99
2019-05-10T21:46:53.783Z,71.45
2019-05-10T21:49:01.991Z,71.83
2019-05-10T21:51:10.909Z,72.09
2019-05-10T21:53:18.796Z,72.39
2019-05-10T21:55:26.693Z,72.66
2019-05-10T21:57:34.788Z,72.79
2019-05-10T21:59:42.680Z,73.01
2019-05-10T22:01:50.731Z,73.23
2019-05-10T22:03:58.742Z,73.22
2019-05-10T22:06:06.703Z,73.10
2019-05-10T22:08:14.589Z,73.05
2019-05-10T22:10:22.582Z,72.92
2019-05-10T22:12:30.478Z,72.91
2019-05-10T22:14:38.466Z,72.87
2019-05-10T22:16:46.492Z,72.75
2019-05-10T22:19:01.892Z,72.65
2019-05-10T22:21:09.828Z,72.82
2019-05-10T22:23:17.756Z,73.42
2019-05-10T22:25:25.651Z,73.38
2019-05-10T22:27:34.528Z,73.91
2019-05-10T22:29:42.448Z,73.66
2019-05-10T22:31:50.339Z,73.79
2019-05-10T22:33:58.304Z,73.88
2019-05-10T22:36:06.229Z,74.08
2019-05-10T22:38:14.169Z,74.37
2019-05-10T22:40:22.483Z,74.25
2019-05-10T22:42:30.887Z,74.41
2019-05-10T22:44:38.773Z,74.21
2019-05-10T22:46:46.815Z,73.89
2019-05-10T22:48:54.733Z,73.61
2019-05-10T22:51:03.695Z,73.13
2019-05-10T22:53:11.590Z,72.81
2019-05-10T22:55:19.508Z,72.81
2019-05-10T22:57:27.507Z,72.91
2019-05-10T22:59:35.464Z,72.88
2019-05-10T23:01:43.685Z,72.91
2019-05-10T23:03:51.576Z,72.83
2019-05-10T23:05:59.473Z,72.71
2019-05-10T23:08:07.469Z,72.61
2019-05-10T23:10:15.628Z,72.62
2019-05-10T23:12:23.520Z,72.63
2019-05-10T23:14:31.441Z,72.65
2019-05-10T23:16:39.327Z,72.82
2019-05-10T23:18:47.286Z,72.97
2019-05-10T23:20:55.220Z,73.39
2019-05-10T23:23:03.145Z,73.45
2019-05-10T23:25:11.107Z,73.45
2019-05-10T23:27:19.015Z,73.56
2019-05-10T23:29:26.917Z,73.74
2019-05-10T23:31:35.573Z,73.82
2019-05-10T23:33:43.925Z,73.71
2019-05-10T23:35:51.912Z,73.93
2019-05-10T23:38:01.008Z,74.23
2019-05-10T23:40:09.583Z,74.53
2019-05-10T23:42:20.513Z,74.71
2019-05-10T23:44:28.400Z,74.85
2019-05-10T23:46:36.337Z,75.04
2019-05-10T23:48:45.867Z,77.25
2019-05-10T23:50:54.760Z,78.74
2019-05-10T23:53:02.733Z,79.39
2019-05-10T23:55:10.895Z,79.11
2019-05-10T23:57:18.850Z,80.25
2019-05-10T23:59:26.763Z,80.32
